Report METAR

 

LIBD - Bari/Palese Macc, Italy
Distance from station: ESE 27km
Dati ricevuti: 31/01/2023 05:20
Few Clouds
Few Clouds
 Vento da O
Vento: O 19 km/h
Temperatura: 7°C
Temperatura Vento: 4°C
P.to Rugiada: 2°C
Umidità: 71%
Barometro: 1016 hPa
Nuvole: Few Clouds
Visibility: 10 km
Cloud details: Few Clouds 1372 m
2023/01/31 04:20 LIBD 310420Z 27010KT 9999 FEW045 07/02 Q1016
LIBV - Gioia Del Colle, Italy
Distance from station: SE 63km
Dati ricevuti: 31/01/2023 04:55
Parz. nuvoloso
Parz. nuvoloso
 Vento da NNO
Vento: NNO 7 km/h
Temperatura: 4°C
Temperatura Vento: 2°C
P.to Rugiada: 0°C
Umidità: 75%
Barometro: 1014 hPa
Nuvole: Parz. nuvoloso
Visibility: 10 km
Cloud details: Parz. nuvoloso 1219 m
2023/01/31 03:55 LIBV 310355Z 33004KT 9999 SCT040 04/M00 Q1014
 
LIBA - Amendola (it-Afb, Italy
Distance from station: ONO 72km
Dati ricevuti: 31/01/2023 04:55
Pioviggine, Nuvoloso
Pioviggine, Nuvoloso
 Vento da ONO
Vento: ONO 19 km/h
Temperatura: 4°C
Temperatura Vento: 0°C
P.to Rugiada: 2°C
Umidità: 87%
Barometro: 1017 hPa
Summary: Pioviggine
Nuvole: Molto nuvoloso
Visibility: 7 km
Cloud details: Parz. nuvoloso 1067 m
Molto nuvoloso 1524 m
2023/01/31 03:55 LIBA 310355Z 30010KT 7000 -RA SCT035 BKN050 04/02 Q1017
LIBF - Foggia/Gino Lisa, Italy
Distance from station: ONO 84km
Dati ricevuti: 30/01/2023 22:50
DATI Obsoleti
Sereno
Sereno
 Vento da O
Vento: O 15 km/h
Temperatura: 5°C
Temperatura Vento: 2°C
P.to Rugiada: 1°C
Umidità: 76%
Barometro: 1015 hPa
Summary: Sereno
Visibility: superiore a 10 km
2023/01/30 21:50 LIBF 302150Z 26008KT CAVOK 05/01 Q1015
 
LIBH - Marina Di Ginosa, Italy
Distance from station: SSE 97km
Dati ricevuti: 30/01/2023 18:55
DATI Obsoleti
Sereno
Sereno
 Vento da NO
Vento: NO 9 km/h
Temperatura: 7°C
Temperatura Vento: 6°C
P.to Rugiada: 4°C
Umidità: 81%
Barometro: 1015 hPa
Summary: Sereno
Visibility: superiore a 10 km
2023/01/30 17:55 LIBH 301755Z 32005KT CAVOK 07/04 Q1015 RMK FEW FEW200 QUK / QUL / VIS MAR 35 KM VIS MIN 9999
LIRT - Trevico, Italy
Distance from station: OSO 109km
Dati ricevuti: 30/01/2023 18:55
DATI Obsoleti
Sereno
Sereno
 Vento da O
Vento: O 17 km/h
Temperatura: 1°C
Temperatura Vento: -3°C
P.to Rugiada: 1°C
Umidità: 100%
Barometro: 1014 hPa
Summary: Sereno
Visibility: superiore a 10 km
2023/01/30 17:55 LIRT 301755Z 28009KT CAVOK 01/01 Q1014
 
LIBG - Grottaglie(Civ/A, Italy
Distance from station: SE 110km
Dati ricevuti: 30/01/2023 19:50
DATI Obsoleti
Sereno
Sereno
 Vento da SO
Vento: SO 6 km/h
Temperatura: 5°C
P.to Rugiada: 2°C
Umidità: 81%
Barometro: 1016 hPa
Summary: Sereno
Visibility: superiore a 10 km
2023/01/30 18:50 LIBG 301850Z 22003KT CAVOK 05/02 Q1016
LIBR - Brindisi/Casale, Italy
Distance from station: ESE 139km
Dati ricevuti: 31/01/2023 05:20
Sereno
Sereno
 Vento da ONO
Vento: ONO 28 km/h
Temperatura: 9°C
Temperatura Vento: 6°C
P.to Rugiada: 4°C
Umidità: 71%
Barometro: 1014 hPa
Summary: Sereno
Visibility: superiore a 10 km
2023/01/31 04:20 LIBR 310420Z 30015KT CAVOK 09/04 Q1014
 
LIRI - Pontecagnano (af, Italy
Distance from station: OSO 149km
Dati ricevuti: 30/01/2023 16:50
DATI Obsoleti
Few Clouds
Few Clouds
 Vento da OSO
Vento: OSO 9 km/h
Temperatura: 11°C
P.to Rugiada: 3°C
Umidità: 58%
Barometro: 1018 hPa
Nuvole: Few Clouds
Visibility: 10 km
Cloud details: Few Clouds 1067 m
2023/01/30 15:50 LIRI 301550Z 25005KT 230V290 9999 FEW035 11/03 Q1018
LIBN - Lecce (it-Afb), Italy
Distance from station: SE 179km
Dati ricevuti: 31/01/2023 03:55
DATI Obsoleti
Few Clouds
Few Clouds
 Vento da NO
Vento: NO 11 km/h
Temperatura: 5°C
Temperatura Vento: 2°C
P.to Rugiada: 3°C
Umidità: 87%
Barometro: 1014 hPa
Nuvole: Few Clouds
Visibility: 10 km
Cloud details: Few Clouds 1219 m
2023/01/31 02:55 LIBN 310255Z 32006KT 9999 FEW040 05/03 Q1014
 
LIRN - Naples/Capodichi, Italy
Distance from station: OSO 188km
Dati ricevuti: 31/01/2023 05:20
Sereno
Sereno
 Vento da NO
Vento: NO 6 km/h
Temperatura: 2°C
P.to Rugiada: -1°C
Umidità: 81%
Barometro: 1018 hPa
Summary: Sereno
Visibility: superiore a 10 km
2023/01/31 04:20 LIRN 310420Z 31003KT 280V040 CAVOK 02/M01 Q1018 NOSIG